• Join FlightAware (Why Join?)
  • Login
  • US Flag 
08:41AM EDT


 

Airport Tracker/Info


-or-


 

Live Flight TrackerFlight Track Log ✈ VNR160 ✈ 20-Apr-2013 ✈ KSFB - KTPA

Flight Track Log - Related Links

Times and Time Zones

All times are in EDT time to prevent confusion due to time zone crossing. See the VNR160 flight status page for this flight to view local times or setup timezone preferences in your user account.

Time Position Orientation Groundspeed Altitude Reporting Facility
EDT Latitude Longitude Course Direction KTS MPH feet Rate Location/Type
08:02PM 28.7833 -81.2167 69° East 162 186 600  Level Orlando TRACON
08:03PM 28.8000 -81.1667 69° East 168 193 2,900 1,800 Climbing Orlando TRACON
08:04PM 28.8167 -81.1167 69° East 192 221 4,500 1,080 Climbing Orlando TRACON
08:05PM 28.8333 -81.1833 286° West 214 246 5,100 1,200 Climbing Orlando TRACON
08:06PM 28.8500 -81.2500 286° West 228 262 6,900 1,920 Climbing Orlando TRACON
08:07PM 28.8500 -81.3000 270° West 180 207 9,000 1,560 Climbing Orlando TRACON
08:08PM 28.8333 -81.3667 254° West 195 224 10,100 480 Climbing Orlando TRACON
08:09PM 28.8167 -81.4333 254° West 255 293 10,000  Descending Orlando TRACON
08:10PM 28.7833 -81.5167 245° Southwest 278 320 10,100  Climbing Orlando TRACON
08:11PM 28.7500 -81.5833 240° Southwest 283 326 10,100  Level Orlando TRACON
08:12PM 28.7000 -81.6667 236° Southwest 275 316 10,100  Level Orlando TRACON
08:13PM 28.6667 -81.7333 240° Southwest 271 312 10,100  Level Orlando TRACON
08:14PM 28.6167 -81.8000 229° Southwest 280 322 10,100  Level Orlando TRACON
08:15PM 28.5667 -81.8833 236° Southwest 282 325 10,100  Level Orlando TRACON
08:16PM 28.5167 -81.9500 230° Southwest 289 333 10,100  Level Tampa TRACON
08:17PM 28.4667 -82.0000 221° Southwest 288 331 10,100  Level Tampa TRACON
08:18PM 28.4167 -82.0667 230° Southwest 284 327 10,100 -900 Level Tampa TRACON
08:19PM 28.3500 -82.1167 213° Southwest 284 327 8,500 -1,800 Descending Tampa TRACON
08:20PM 28.3000 -82.1833 230° Southwest 272 313 6,600 -1,980 Descending Tampa TRACON
08:21PM 28.2333 -82.2167 204° Southwest 270 311 4,400 -1,800 Descending Tampa TRACON
08:22PM 28.1667 -82.2500 204° Southwest 264 304 3,100 -720 Descending Tampa TRACON
08:23PM 28.1000 -82.2833 204° Southwest 247 284 3,100  Level Tampa TRACON
08:24PM 28.0333 -82.3333 214° Southwest 255 293 3,100 -180 Level Tampa TRACON
08:25PM 27.9833 -82.3667 210° Southwest 227 261 2,800 -720 Descending Tampa TRACON
08:26PM 27.9500 -82.4167 233° Southwest 199 229 1,700 -660 Descending Tampa TRACON
08:27PM 27.9333 -82.4667 249° West 164 189 1,500 -300 Descending Tampa TRACON
08:28PM 27.9333 -82.5167 270° West 145 167 1,100 -420 Descending Tampa TRACON
08:30PM 27.9667 -82.5167 350° North  Level FlightAware Approximate
08:37PM 27.9755 -82.5332 350° North  Level Estimated